This is the latest recevied weather packets stored in our database for station/object LZ0VRC-10. If no packets are shown the sender has not sent any weather packets the latest 10 day(s).
| Time | Temp. | Humidity | Pressure | Rain* | Wind** | Luminosity | Snow |
|---|---|---|---|---|---|---|---|
| 1778026798 | 14.44° C | 54% | 1013.8 hPa | - | - | - | - |
| 1778025898 | 13.89° C | 56% | 1013.9 hPa | - | - | - | - |
| 1778025003 | 13.89° C | 55% | 1013.9 hPa | - | - | - | - |
| 1778024998 | 13.89° C | 55% | 1013.9 hPa | - | - | - | - |
| 1778024103 | 14.44° C | 54% | 1013.9 hPa | - | - | - | - |
| 1778024098 | 14.44° C | 54% | 1013.9 hPa | - | - | - | - |
| 1778023203 | 15° C | 51% | 1014 hPa | - | - | - | - |
| 1778023199 | 15° C | 51% | 1014 hPa | - | - | - | - |
| 1778022303 | 15° C | 52% | 1014.1 hPa | - | - | - | - |
| 1778022299 | 15° C | 52% | 1014.1 hPa | - | - | - | - |
| 1778021404 | 15.56° C | 50% | 1014.1 hPa | - | - | - | - |
| 1778021399 | 15.56° C | 50% | 1014.1 hPa | - | - | - | - |
| 1778020504 | 15° C | 51% | 1014.2 hPa | - | - | - | - |
| 1778020499 | 15° C | 51% | 1014.2 hPa | - | - | - | - |
| 1778019603 | 16.11° C | 46% | 1014.4 hPa | - | - | - | - |
| 1778019599 | 16.11° C | 46% | 1014.4 hPa | - | - | - | - |
| 1778018703 | 16.11° C | 46% | 1014.4 hPa | - | - | - | - |
| 1778018699 | 16.11° C | 46% | 1014.4 hPa | - | - | - | - |
| 1778017804 | 16.11° C | 46% | 1014.4 hPa | - | - | - | - |
| 1778017799 | 16.11° C | 46% | 1014.4 hPa | - | - | - | - |
| 1778016904 | 16.11° C | 46% | 1014.4 hPa | - | - | - | - |
| 1778016899 | 16.11° C | 46% | 1014.4 hPa | - | - | - | - |
| 1778016004 | 17.22° C | 42% | 1014.5 hPa | - | - | - | - |
| 1778015999 | 17.22° C | 42% | 1014.5 hPa | - | - | - | - |
| 1778015104 | 17.78° C | 41% | 1014.5 hPa | - | - | - | - |
* Rain since midnight (hover to see other rain measurements)
** Current wind speed in m/s (hover to see current wind gust speed)